sensor_id;sensor_type;location;lat;lon;timestamp;temperature;humidity
70214;DHT22;60138;55.808;37.078;2022-07-09T00:01:30;17.39;63.76
70214;DHT22;60138;55.808;37.078;2022-07-09T00:03:56;17.36;63.48
70214;DHT22;60138;55.808;37.078;2022-07-09T00:06:21;17.34;63.33
70214;DHT22;60138;55.808;37.078;2022-07-09T00:08:47;17.30;63.11
70214;DHT22;60138;55.808;37.078;2022-07-09T00:11:13;17.23;63.28
70214;DHT22;60138;55.808;37.078;2022-07-09T00:13:38;17.20;63.44
70214;DHT22;60138;55.808;37.078;2022-07-09T00:16:04;17.14;63.60
70214;DHT22;60138;55.808;37.078;2022-07-09T00:18:30;17.08;63.74
70214;DHT22;60138;55.808;37.078;2022-07-09T00:20:56;17.02;63.53
70214;DHT22;60138;55.808;37.078;2022-07-09T00:23:22;16.92;63.82
70214;DHT22;60138;55.808;37.078;2022-07-09T00:25:47;16.80;64.46
70214;DHT22;60138;55.808;37.078;2022-07-09T00:28:13;16.75;64.56
70214;DHT22;60138;55.808;37.078;2022-07-09T00:30:39;16.69;64.96
70214;DHT22;60138;55.808;37.078;2022-07-09T00:33:05;16.64;65.11
70214;DHT22;60138;55.808;37.078;2022-07-09T00:35:30;16.60;65.33
70214;DHT22;60138;55.808;37.078;2022-07-09T00:37:56;16.61;65.56
70214;DHT22;60138;55.808;37.078;2022-07-09T00:40:22;16.59;65.62
70214;DHT22;60138;55.808;37.078;2022-07-09T00:42:48;16.58;65.86
70214;DHT22;60138;55.808;37.078;2022-07-09T00:45:14;16.58;66.18
70214;DHT22;60138;55.808;37.078;2022-07-09T00:47:39;16.56;66.14
70214;DHT22;60138;55.808;37.078;2022-07-09T00:50:05;16.54;66.07
70214;DHT22;60138;55.808;37.078;2022-07-09T00:52:33;16.51;66.00
70214;DHT22;60138;55.808;37.078;2022-07-09T00:55:00;16.47;66.12
70214;DHT22;60138;55.808;37.078;2022-07-09T00:57:27;16.44;66.11
70214;DHT22;60138;55.808;37.078;2022-07-09T00:59:53;16.44;66.28
70214;DHT22;60138;55.808;37.078;2022-07-09T01:02:21;16.39;66.14
70214;DHT22;60138;55.808;37.078;2022-07-09T01:04:47;16.36;66.24
70214;DHT22;60138;55.808;37.078;2022-07-09T01:07:13;16.33;66.15
70214;DHT22;60138;55.808;37.078;2022-07-09T01:09:39;16.34;66.32
70214;DHT22;60138;55.808;37.078;2022-07-09T01:12:07;16.35;66.78
70214;DHT22;60138;55.808;37.078;2022-07-09T01:14:32;16.33;66.62
70214;DHT22;60138;55.808;37.078;2022-07-09T01:17:00;16.29;66.65
70214;DHT22;60138;55.808;37.078;2022-07-09T01:19:30;16.25;66.85
70214;DHT22;60138;55.808;37.078;2022-07-09T01:21:57;16.25;66.67
70214;DHT22;60138;55.808;37.078;2022-07-09T01:24:23;16.25;66.78
70214;DHT22;60138;55.808;37.078;2022-07-09T01:26:49;16.24;66.89
70214;DHT22;60138;55.808;37.078;2022-07-09T01:29:16;16.26;67.01
70214;DHT22;60138;55.808;37.078;2022-07-09T01:31:42;16.28;67.40
70214;DHT22;60138;55.808;37.078;2022-07-09T01:34:08;16.30;67.55
70214;DHT22;60138;55.808;37.078;2022-07-09T01:36:34;16.29;67.52
70214;DHT22;60138;55.808;37.078;2022-07-09T01:39:00;16.31;67.36
70214;DHT22;60138;55.808;37.078;2022-07-09T01:41:25;16.33;67.30
70214;DHT22;60138;55.808;37.078;2022-07-09T01:43:51;16.32;67.37
70214;DHT22;60138;55.808;37.078;2022-07-09T01:46:17;16.32;67.30
70214;DHT22;60138;55.808;37.078;2022-07-09T01:48:43;16.30;67.36
70214;DHT22;60138;55.808;37.078;2022-07-09T01:51:09;16.25;67.50
70214;DHT22;60138;55.808;37.078;2022-07-09T01:53:35;16.25;67.33
70214;DHT22;60138;55.808;37.078;2022-07-09T01:56:08;16.28;67.45
70214;DHT22;60138;55.808;37.078;2022-07-09T01:58:35;16.29;67.72
70214;DHT22;60138;55.808;37.078;2022-07-09T02:01:02;16.29;67.48
70214;DHT22;60138;55.808;37.078;2022-07-09T02:03:29;16.31;66.92
70214;DHT22;60138;55.808;37.078;2022-07-09T02:05:55;16.32;67.63
70214;DHT22;60138;55.808;37.078;2022-07-09T02:08:20;16.32;67.68
70214;DHT22;60138;55.808;37.078;2022-07-09T02:10:46;16.32;67.49
70214;DHT22;60138;55.808;37.078;2022-07-09T02:13:12;16.33;67.07
70214;DHT22;60138;55.808;37.078;2022-07-09T02:15:38;16.35;67.02
70214;DHT22;60138;55.808;37.078;2022-07-09T02:18:04;16.39;67.10
70214;DHT22;60138;55.808;37.078;2022-07-09T02:20:30;16.42;66.70
70214;DHT22;60138;55.808;37.078;2022-07-09T02:22:56;16.44;66.47
70214;DHT22;60138;55.808;37.078;2022-07-09T02:25:22;16.45;66.60
70214;DHT22;60138;55.808;37.078;2022-07-09T02:27:48;16.46;66.61
70214;DHT22;60138;55.808;37.078;2022-07-09T02:30:13;16.48;66.46
70214;DHT22;60138;55.808;37.078;2022-07-09T02:32:39;16.52;66.47
70214;DHT22;60138;55.808;37.078;2022-07-09T02:35:05;16.57;66.60
70214;DHT22;60138;55.808;37.078;2022-07-09T02:37:31;16.59;66.91
70214;DHT22;60138;55.808;37.078;2022-07-09T02:39:57;16.59;66.44
70214;DHT22;60138;55.808;37.078;2022-07-09T02:42:23;16.60;66.33
70214;DHT22;60138;55.808;37.078;2022-07-09T02:44:49;16.67;66.14
70214;DHT22;60138;55.808;37.078;2022-07-09T02:47:15;16.72;66.00
70214;DHT22;60138;55.808;37.078;2022-07-09T02:49:41;16.77;66.01
70214;DHT22;60138;55.808;37.078;2022-07-09T02:52:06;16.81;66.17
70214;DHT22;60138;55.808;37.078;2022-07-09T02:54:32;16.87;66.18
70214;DHT22;60138;55.808;37.078;2022-07-09T02:56:58;16.92;66.45
70214;DHT22;60138;55.808;37.078;2022-07-09T02:59:24;16.98;66.47
70214;DHT22;60138;55.808;37.078;2022-07-09T03:01:49;17.04;66.37
70214;DHT22;60138;55.808;37.078;2022-07-09T03:04:15;17.14;66.49
70214;DHT22;60138;55.808;37.078;2022-07-09T03:06:41;17.25;66.14
70214;DHT22;60138;55.808;37.078;2022-07-09T03:09:07;17.36;65.61
70214;DHT22;60138;55.808;37.078;2022-07-09T03:11:32;17.46;65.19
70214;DHT22;60138;55.808;37.078;2022-07-09T03:13:58;17.53;64.66
70214;DHT22;60138;55.808;37.078;2022-07-09T03:16:24;17.61;64.75
70214;DHT22;60138;55.808;37.078;2022-07-09T03:18:49;17.66;64.82
70214;DHT22;60138;55.808;37.078;2022-07-09T03:21:15;17.72;64.85
70214;DHT22;60138;55.808;37.078;2022-07-09T03:23:41;17.77;64.57
70214;DHT22;60138;55.808;37.078;2022-07-09T03:26:06;17.78;64.85
70214;DHT22;60138;55.808;37.078;2022-07-09T03:28:33;17.79;64.67
70214;DHT22;60138;55.808;37.078;2022-07-09T03:30:59;17.82;64.79
70214;DHT22;60138;55.808;37.078;2022-07-09T03:33:25;17.85;64.40
70214;DHT22;60138;55.808;37.078;2022-07-09T03:35:54;17.89;64.48
70214;DHT22;60138;55.808;37.078;2022-07-09T03:38:19;17.93;64.33
70214;DHT22;60138;55.808;37.078;2022-07-09T03:40:45;17.97;64.34
70214;DHT22;60138;55.808;37.078;2022-07-09T03:43:11;18.03;64.24
70214;DHT22;60138;55.808;37.078;2022-07-09T03:45:36;18.10;63.63
70214;DHT22;60138;55.808;37.078;2022-07-09T03:48:02;18.14;64.24
70214;DHT22;60138;55.808;37.078;2022-07-09T03:50:28;18.19;64.27
70214;DHT22;60138;55.808;37.078;2022-07-09T03:52:54;18.25;64.30
70214;DHT22;60138;55.808;37.078;2022-07-09T03:55:20;18.35;64.29
70214;DHT22;60138;55.808;37.078;2022-07-09T03:57:46;18.41;64.24
70214;DHT22;60138;55.808;37.078;2022-07-09T04:00:12;18.49;63.92
70214;DHT22;60138;55.808;37.078;2022-07-09T04:02:43;18.64;64.20
70214;DHT22;60138;55.808;37.078;2022-07-09T04:05:09;18.73;64.20
70214;DHT22;60138;55.808;37.078;2022-07-09T04:07:35;18.86;64.01
70214;DHT22;60138;55.808;37.078;2022-07-09T04:10:02;18.93;63.62
70214;DHT22;60138;55.808;37.078;2022-07-09T04:12:29;19.01;63.67
70214;DHT22;60138;55.808;37.078;2022-07-09T04:14:54;19.08;63.53
70214;DHT22;60138;55.808;37.078;2022-07-09T04:17:20;19.16;63.19
70214;DHT22;60138;55.808;37.078;2022-07-09T04:19:46;19.29;63.26
70214;DHT22;60138;55.808;37.078;2022-07-09T04:22:11;19.42;63.01
70214;DHT22;60138;55.808;37.078;2022-07-09T04:24:37;19.52;62.78
70214;DHT22;60138;55.808;37.078;2022-07-09T04:27:03;19.58;63.23
70214;DHT22;60138;55.808;37.078;2022-07-09T04:29:29;19.61;62.86
70214;DHT22;60138;55.808;37.078;2022-07-09T04:31:54;19.66;62.90
70214;DHT22;60138;55.808;37.078;2022-07-09T04:34:20;19.69;62.97
70214;DHT22;60138;55.808;37.078;2022-07-09T04:36:46;19.75;62.98
70214;DHT22;60138;55.808;37.078;2022-07-09T04:39:12;19.76;63.30
70214;DHT22;60138;55.808;37.078;2022-07-09T04:41:37;19.81;63.05
70214;DHT22;60138;55.808;37.078;2022-07-09T04:44:03;19.88;62.81
70214;DHT22;60138;55.808;37.078;2022-07-09T04:46:29;19.92;63.01
70214;DHT22;60138;55.808;37.078;2022-07-09T04:48:55;19.95;63.01
70214;DHT22;60138;55.808;37.078;2022-07-09T04:51:20;19.99;63.15
70214;DHT22;60138;55.808;37.078;2022-07-09T04:53:46;20.04;62.76
70214;DHT22;60138;55.808;37.078;2022-07-09T04:56:12;20.05;62.92
70214;DHT22;60138;55.808;37.078;2022-07-09T04:58:38;20.07;63.12
70214;DHT22;60138;55.808;37.078;2022-07-09T05:01:04;20.09;62.95
70214;DHT22;60138;55.808;37.078;2022-07-09T05:03:29;20.14;63.03
70214;DHT22;60138;55.808;37.078;2022-07-09T05:05:55;20.17;62.94
70214;DHT22;60138;55.808;37.078;2022-07-09T05:08:21;20.20;62.92
70214;DHT22;60138;55.808;37.078;2022-07-09T05:10:46;20.25;62.92
70214;DHT22;60138;55.808;37.078;2022-07-09T05:13:12;20.29;63.03
70214;DHT22;60138;55.808;37.078;2022-07-09T05:15:38;20.35;62.75
70214;DHT22;60138;55.808;37.078;2022-07-09T05:18:04;20.40;62.61
70214;DHT22;60138;55.808;37.078;2022-07-09T05:20:29;20.44;62.74
70214;DHT22;60138;55.808;37.078;2022-07-09T05:22:55;20.50;62.60
70214;DHT22;60138;55.808;37.078;2022-07-09T05:25:21;20.56;62.34
70214;DHT22;60138;55.808;37.078;2022-07-09T05:27:47;20.62;62.50
70214;DHT22;60138;55.808;37.078;2022-07-09T05:30:13;20.68;62.48
70214;DHT22;60138;55.808;37.078;2022-07-09T05:32:40;20.77;62.27
70214;DHT22;60138;55.808;37.078;2022-07-09T05:35:06;20.85;62.11
70214;DHT22;60138;55.808;37.078;2022-07-09T05:37:31;20.89;62.11
70214;DHT22;60138;55.808;37.078;2022-07-09T05:39:57;20.93;61.69
70214;DHT22;60138;55.808;37.078;2022-07-09T05:42:23;20.94;61.53
70214;DHT22;60138;55.808;37.078;2022-07-09T05:44:49;20.96;61.51
70214;DHT22;60138;55.808;37.078;2022-07-09T05:47:15;20.99;61.39
70214;DHT22;60138;55.808;37.078;2022-07-09T05:49:41;21.00;61.36
70214;DHT22;60138;55.808;37.078;2022-07-09T05:52:07;21.02;61.42
70214;DHT22;60138;55.808;37.078;2022-07-09T05:54:33;21.06;61.21
70214;DHT22;60138;55.808;37.078;2022-07-09T05:56:58;21.13;61.09
70214;DHT22;60138;55.808;37.078;2022-07-09T05:59:24;21.17;61.06
70214;DHT22;60138;55.808;37.078;2022-07-09T06:01:50;21.20;60.80
70214;DHT22;60138;55.808;37.078;2022-07-09T06:04:16;21.24;60.83
70214;DHT22;60138;55.808;37.078;2022-07-09T06:06:41;21.31;60.97
70214;DHT22;60138;55.808;37.078;2022-07-09T06:09:07;21.34;60.57
70214;DHT22;60138;55.808;37.078;2022-07-09T06:11:33;21.38;60.29
70214;DHT22;60138;55.808;37.078;2022-07-09T06:13:59;21.38;60.22
70214;DHT22;60138;55.808;37.078;2022-07-09T06:16:25;21.38;60.18
70214;DHT22;60138;55.808;37.078;2022-07-09T06:18:50;21.44;60.35
70214;DHT22;60138;55.808;37.078;2022-07-09T06:21:16;21.46;60.00
70214;DHT22;60138;55.808;37.078;2022-07-09T06:23:42;21.49;60.15
70214;DHT22;60138;55.808;37.078;2022-07-09T06:26:08;21.53;59.92
70214;DHT22;60138;55.808;37.078;2022-07-09T06:28:36;21.53;59.78
70214;DHT22;60138;55.808;37.078;2022-07-09T06:31:02;21.53;59.80
70214;DHT22;60138;55.808;37.078;2022-07-09T06:33:28;21.50;59.86
70214;DHT22;60138;55.808;37.078;2022-07-09T06:35:53;21.48;59.75
70214;DHT22;60138;55.808;37.078;2022-07-09T06:38:19;21.48;59.67
70214;DHT22;60138;55.808;37.078;2022-07-09T06:40:45;21.50;59.38
70214;DHT22;60138;55.808;37.078;2022-07-09T06:43:10;21.50;59.42
70214;DHT22;60138;55.808;37.078;2022-07-09T06:45:44;21.52;59.61
70214;DHT22;60138;55.808;37.078;2022-07-09T06:48:09;21.57;59.41
70214;DHT22;60138;55.808;37.078;2022-07-09T06:50:35;21.63;59.38
70214;DHT22;60138;55.808;37.078;2022-07-09T06:53:01;21.73;59.02
70214;DHT22;60138;55.808;37.078;2022-07-09T06:55:27;21.79;58.95
70214;DHT22;60138;55.808;37.078;2022-07-09T06:57:52;21.84;58.49
70214;DHT22;60138;55.808;37.078;2022-07-09T07:00:18;21.89;58.51
70214;DHT22;60138;55.808;37.078;2022-07-09T07:02:44;21.97;58.11
70214;DHT22;60138;55.808;37.078;2022-07-09T07:05:09;22.09;58.33
70214;DHT22;60138;55.808;37.078;2022-07-09T07:07:35;22.27;58.10
70214;DHT22;60138;55.808;37.078;2022-07-09T07:10:01;22.42;57.07
70214;DHT22;60138;55.808;37.078;2022-07-09T07:12:29;22.51;57.57
70214;DHT22;60138;55.808;37.078;2022-07-09T07:14:54;22.54;57.45
70214;DHT22;60138;55.808;37.078;2022-07-09T07:17:20;22.53;57.49
70214;DHT22;60138;55.808;37.078;2022-07-09T07:19:46;22.55;57.68
70214;DHT22;60138;55.808;37.078;2022-07-09T07:22:11;22.62;57.61
70214;DHT22;60138;55.808;37.078;2022-07-09T07:24:37;22.76;57.49
70214;DHT22;60138;55.808;37.078;2022-07-09T07:27:03;22.92;57.07
70214;DHT22;60138;55.808;37.078;2022-07-09T07:29:30;23.09;57.29
70214;DHT22;60138;55.808;37.078;2022-07-09T07:31:55;23.26;57.27
70214;DHT22;60138;55.808;37.078;2022-07-09T07:34:21;23.44;56.95
70214;DHT22;60138;55.808;37.078;2022-07-09T07:36:47;23.59;56.81
70214;DHT22;60138;55.808;37.078;2022-07-09T07:39:12;23.81;56.49
70214;DHT22;60138;55.808;37.078;2022-07-09T07:41:38;23.96;56.14
70214;DHT22;60138;55.808;37.078;2022-07-09T07:44:04;24.01;56.10
70214;DHT22;60138;55.808;37.078;2022-07-09T07:46:29;24.00;55.75
70214;DHT22;60138;55.808;37.078;2022-07-09T07:48:55;23.94;56.18
70214;DHT22;60138;55.808;37.078;2022-07-09T07:51:21;23.85;56.23
70214;DHT22;60138;55.808;37.078;2022-07-09T07:53:47;23.80;56.59
70214;DHT22;60138;55.808;37.078;2022-07-09T07:56:12;23.65;56.99
70214;DHT22;60138;55.808;37.078;2022-07-09T07:58:38;23.52;57.26
70214;DHT22;60138;55.808;37.078;2022-07-09T08:01:04;23.37;57.53
70214;DHT22;60138;55.808;37.078;2022-07-09T08:03:30;23.27;57.97
70214;DHT22;60138;55.808;37.078;2022-07-09T08:05:55;23.23;58.32
70214;DHT22;60138;55.808;37.078;2022-07-09T08:08:21;23.23;58.44
70214;DHT22;60138;55.808;37.078;2022-07-09T08:10:47;23.27;58.61
70214;DHT22;60138;55.808;37.078;2022-07-09T08:13:15;23.38;58.54
70214;DHT22;60138;55.808;37.078;2022-07-09T08:15:40;23.53;58.41
70214;DHT22;60138;55.808;37.078;2022-07-09T08:18:06;23.71;58.06
70214;DHT22;60138;55.808;37.078;2022-07-09T08:20:32;23.81;58.11
70214;DHT22;60138;55.808;37.078;2022-07-09T08:22:58;23.86;57.85
70214;DHT22;60138;55.808;37.078;2022-07-09T08:25:23;23.88;57.61
70214;DHT22;60138;55.808;37.078;2022-07-09T08:27:49;23.92;57.49
70214;DHT22;60138;55.808;37.078;2022-07-09T08:30:15;24.06;57.41
70214;DHT22;60138;55.808;37.078;2022-07-09T08:32:41;24.11;57.60
70214;DHT22;60138;55.808;37.078;2022-07-09T08:35:07;24.14;57.42
70214;DHT22;60138;55.808;37.078;2022-07-09T08:37:33;24.08;57.15
70214;DHT22;60138;55.808;37.078;2022-07-09T08:40:05;23.96;57.15
70214;DHT22;60138;55.808;37.078;2022-07-09T08:42:31;23.83;57.77
70214;DHT22;60138;55.808;37.078;2022-07-09T08:44:56;23.74;58.03
70214;DHT22;60138;55.808;37.078;2022-07-09T08:47:23;23.68;58.03
70214;DHT22;60138;55.808;37.078;2022-07-09T08:49:54;23.68;58.25
70214;DHT22;60138;55.808;37.078;2022-07-09T08:52:23;23.72;58.43
70214;DHT22;60138;55.808;37.078;2022-07-09T08:54:52;23.79;58.27
70214;DHT22;60138;55.808;37.078;2022-07-09T08:57:18;23.88;58.29
70214;DHT22;60138;55.808;37.078;2022-07-09T08:59:44;24.00;57.93
70214;DHT22;60138;55.808;37.078;2022-07-09T09:02:09;24.14;57.99
70214;DHT22;60138;55.808;37.078;2022-07-09T09:04:35;24.34;57.90
70214;DHT22;60138;55.808;37.078;2022-07-09T09:07:18;24.43;56.95
70214;DHT22;60138;55.808;37.078;2022-07-09T09:09:44;24.41;56.73
70214;DHT22;60138;55.808;37.078;2022-07-09T09:12:12;24.40;56.55
70214;DHT22;60138;55.808;37.078;2022-07-09T09:14:38;24.26;56.81
70214;DHT22;60138;55.808;37.078;2022-07-09T09:17:05;24.08;57.05
70214;DHT22;60138;55.808;37.078;2022-07-09T09:19:31;23.97;57.43
70214;DHT22;60138;55.808;37.078;2022-07-09T09:21:57;23.89;57.79
70214;DHT22;60138;55.808;37.078;2022-07-09T09:24:25;23.82;57.75
70214;DHT22;60138;55.808;37.078;2022-07-09T09:26:51;23.75;57.77
70214;DHT22;60138;55.808;37.078;2022-07-09T09:29:16;23.71;58.15
70214;DHT22;60138;55.808;37.078;2022-07-09T09:31:45;23.75;58.25
70214;DHT22;60138;55.808;37.078;2022-07-09T09:34:13;23.79;58.44
70214;DHT22;60138;55.808;37.078;2022-07-09T09:39:19;23.71;58.36
70214;DHT22;60138;55.808;37.078;2022-07-09T09:41:50;23.67;58.54
70214;DHT22;60138;55.808;37.078;2022-07-09T09:44:21;23.58;58.24
70214;DHT22;60138;55.808;37.078;2022-07-09T09:46:47;23.43;58.19
70214;DHT22;60138;55.808;37.078;2022-07-09T09:49:14;23.43;59.03
70214;DHT22;60138;55.808;37.078;2022-07-09T09:54:27;23.58;60.08
70214;DHT22;60138;55.808;37.078;2022-07-09T09:56:54;23.67;59.80
70214;DHT22;60138;55.808;37.078;2022-07-09T09:59:20;23.75;59.62
70214;DHT22;60138;55.808;37.078;2022-07-09T10:01:46;23.76;59.48
70214;DHT22;60138;55.808;37.078;2022-07-09T10:04:13;23.72;59.62
70214;DHT22;60138;55.808;37.078;2022-07-09T10:06:40;23.71;59.32
70214;DHT22;60138;55.808;37.078;2022-07-09T10:09:07;23.71;59.36
70214;DHT22;60138;55.808;37.078;2022-07-09T10:11:46;23.73;59.51
70214;DHT22;60138;55.808;37.078;2022-07-09T10:16:51;23.82;58.78
70214;DHT22;60138;55.808;37.078;2022-07-09T10:19:28;23.89;58.74
70214;DHT22;60138;55.808;37.078;2022-07-09T10:21:55;24.01;58.80
70214;DHT22;60138;55.808;37.078;2022-07-09T10:27:11;24.51;57.90
70214;DHT22;60138;55.808;37.078;2022-07-09T10:29:54;24.90;57.58
70214;DHT22;60138;55.808;37.078;2022-07-09T10:32:27;25.24;56.39
70214;DHT22;60138;55.808;37.078;2022-07-09T10:35:00;25.54;55.87
70214;DHT22;60138;55.808;37.078;2022-07-09T10:37:43;25.79;54.90
70214;DHT22;60138;55.808;37.078;2022-07-09T10:40:19;25.95;54.04
70214;DHT22;60138;55.808;37.078;2022-07-09T10:42:58;26.09;52.60
70214;DHT22;60138;55.808;37.078;2022-07-09T10:45:25;26.20;52.91
70214;DHT22;60138;55.808;37.078;2022-07-09T10:47:56;26.32;52.60
70214;DHT22;60138;55.808;37.078;2022-07-09T10:50:22;26.42;52.27
70214;DHT22;60138;55.808;37.078;2022-07-09T10:52:49;26.55;51.62
70214;DHT22;60138;55.808;37.078;2022-07-09T10:55:17;26.67;52.57
70214;DHT22;60138;55.808;37.078;2022-07-09T10:57:43;26.77;51.92
70214;DHT22;60138;55.808;37.078;2022-07-09T11:00:09;26.86;51.44
70214;DHT22;60138;55.808;37.078;2022-07-09T11:02:38;26.90;50.43
70214;DHT22;60138;55.808;37.078;2022-07-09T11:05:15;26.96;50.41
70214;DHT22;60138;55.808;37.078;2022-07-09T11:07:41;26.96;50.27
70214;DHT22;60138;55.808;37.078;2022-07-09T11:10:07;26.99;50.77
70214;DHT22;60138;55.808;37.078;2022-07-09T11:12:33;26.95;50.52
70214;DHT22;60138;55.808;37.078;2022-07-09T11:14:58;27.06;50.46
70214;DHT22;60138;55.808;37.078;2022-07-09T11:17:25;27.25;50.07
70214;DHT22;60138;55.808;37.078;2022-07-09T11:19:51;27.55;50.07
70214;DHT22;60138;55.808;37.078;2022-07-09T11:22:19;27.78;50.53
70214;DHT22;60138;55.808;37.078;2022-07-09T11:24:44;27.91;50.12
70214;DHT22;60138;55.808;37.078;2022-07-09T11:27:10;27.90;48.43
70214;DHT22;60138;55.808;37.078;2022-07-09T11:29:36;27.90;49.76
70214;DHT22;60138;55.808;37.078;2022-07-09T11:32:03;27.88;48.86
70214;DHT22;60138;55.808;37.078;2022-07-09T11:34:29;27.91;49.62
70214;DHT22;60138;55.808;37.078;2022-07-09T11:36:57;27.88;48.03
70214;DHT22;60138;55.808;37.078;2022-07-09T11:41:49;27.47;48.30
70214;DHT22;60138;55.808;37.078;2022-07-09T11:46:59;27.43;45.99
70214;DHT22;60138;55.808;37.078;2022-07-09T11:49:35;27.50;47.19
70214;DHT22;60138;55.808;37.078;2022-07-09T11:52:01;27.49;48.53
70214;DHT22;60138;55.808;37.078;2022-07-09T11:54:30;27.46;48.21
70214;DHT22;60138;55.808;37.078;2022-07-09T11:56:55;27.45;47.93
70214;DHT22;60138;55.808;37.078;2022-07-09T11:59:29;27.40;47.08
70214;DHT22;60138;55.808;37.078;2022-07-09T12:01:55;27.37;47.45
70214;DHT22;60138;55.808;37.078;2022-07-09T12:04:20;27.37;48.52
70214;DHT22;60138;55.808;37.078;2022-07-09T12:06:50;27.29;46.80
70214;DHT22;60138;55.808;37.078;2022-07-09T12:09:27;27.16;45.34
70214;DHT22;60138;55.808;37.078;2022-07-09T12:11:53;27.04;47.17
70214;DHT22;60138;55.808;37.078;2022-07-09T12:14:19;26.95;47.49
70214;DHT22;60138;55.808;37.078;2022-07-09T12:16:45;26.87;48.02
70214;DHT22;60138;55.808;37.078;2022-07-09T12:19:10;26.90;48.37
70214;DHT22;60138;55.808;37.078;2022-07-09T12:21:36;26.91;48.31
70214;DHT22;60138;55.808;37.078;2022-07-09T12:24:02;26.87;47.96
70214;DHT22;60138;55.808;37.078;2022-07-09T12:26:27;26.77;47.91
70214;DHT22;60138;55.808;37.078;2022-07-09T12:28:53;26.69;48.08
70214;DHT22;60138;55.808;37.078;2022-07-09T12:31:19;26.63;48.48
70214;DHT22;60138;55.808;37.078;2022-07-09T12:33:44;26.57;48.46
70214;DHT22;60138;55.808;37.078;2022-07-09T12:36:10;26.51;49.15
70214;DHT22;60138;55.808;37.078;2022-07-09T12:38:36;26.56;48.92
70214;DHT22;60138;55.808;37.078;2022-07-09T12:41:02;26.65;49.30
70214;DHT22;60138;55.808;37.078;2022-07-09T12:43:27;26.78;48.31
70214;DHT22;60138;55.808;37.078;2022-07-09T12:45:53;26.89;47.63
70214;DHT22;60138;55.808;37.078;2022-07-09T12:48:19;27.04;47.47
70214;DHT22;60138;55.808;37.078;2022-07-09T12:50:44;27.24;47.47
70214;DHT22;60138;55.808;37.078;2022-07-09T12:53:10;27.50;46.84
70214;DHT22;60138;55.808;37.078;2022-07-09T12:55:36;27.95;45.66
70214;DHT22;60138;55.808;37.078;2022-07-09T12:58:02;30.78;44.35
70214;DHT22;60138;55.808;37.078;2022-07-09T13:00:27;33.36;41.26
70214;DHT22;60138;55.808;37.078;2022-07-09T13:02:53;35.11;39.14
70214;DHT22;60138;55.808;37.078;2022-07-09T13:05:19;34.89;38.96
70214;DHT22;60138;55.808;37.078;2022-07-09T13:07:45;33.93;38.14
70214;DHT22;60138;55.808;37.078;2022-07-09T13:10:10;32.82;40.45
70214;DHT22;60138;55.808;37.078;2022-07-09T13:12:36;31.89;40.39
70214;DHT22;60138;55.808;37.078;2022-07-09T13:15:02;31.18;40.60
70214;DHT22;60138;55.808;37.078;2022-07-09T13:17:29;30.64;41.36
70214;DHT22;60138;55.808;37.078;2022-07-09T13:19:55;30.15;41.18
70214;DHT22;60138;55.808;37.078;2022-07-09T13:22:20;29.73;41.90
70214;DHT22;60138;55.808;37.078;2022-07-09T13:24:46;29.41;42.29
70214;DHT22;60138;55.808;37.078;2022-07-09T13:27:12;29.07;42.73
70214;DHT22;60138;55.808;37.078;2022-07-09T13:29:38;28.84;43.06
70214;DHT22;60138;55.808;37.078;2022-07-09T13:32:04;28.69;43.14
70214;DHT22;60138;55.808;37.078;2022-07-09T13:34:30;28.50;42.93
70214;DHT22;60138;55.808;37.078;2022-07-09T13:36:55;28.30;43.35
70214;DHT22;60138;55.808;37.078;2022-07-09T13:39:21;28.12;43.36
70214;DHT22;60138;55.808;37.078;2022-07-09T13:41:47;27.93;43.57
70214;DHT22;60138;55.808;37.078;2022-07-09T13:44:13;27.71;43.87
70214;DHT22;60138;55.808;37.078;2022-07-09T13:46:38;27.52;44.29
70214;DHT22;60138;55.808;37.078;2022-07-09T13:49:04;27.28;44.17
70214;DHT22;60138;55.808;37.078;2022-07-09T13:51:30;27.05;44.45
70214;DHT22;60138;55.808;37.078;2022-07-09T13:53:56;26.80;44.39
70214;DHT22;60138;55.808;37.078;2022-07-09T13:56:22;26.58;44.98
70214;DHT22;60138;55.808;37.078;2022-07-09T13:58:47;26.40;45.35
70214;DHT22;60138;55.808;37.078;2022-07-09T14:01:13;26.23;45.85
70214;DHT22;60138;55.808;37.078;2022-07-09T14:03:39;26.08;46.61
70214;DHT22;60138;55.808;37.078;2022-07-09T14:06:05;25.90;47.43
70214;DHT22;60138;55.808;37.078;2022-07-09T14:08:30;25.74;47.73
70214;DHT22;60138;55.808;37.078;2022-07-09T14:10:57;25.64;48.31
70214;DHT22;60138;55.808;37.078;2022-07-09T14:13:25;25.56;47.57
70214;DHT22;60138;55.808;37.078;2022-07-09T14:15:54;25.50;48.87
70214;DHT22;60138;55.808;37.078;2022-07-09T14:18:20;25.52;49.09
70214;DHT22;60138;55.808;37.078;2022-07-09T14:20:46;25.56;49.50
70214;DHT22;60138;55.808;37.078;2022-07-09T14:23:12;25.61;48.84
70214;DHT22;60138;55.808;37.078;2022-07-09T14:25:38;25.66;49.72
70214;DHT22;60138;55.808;37.078;2022-07-09T14:28:04;25.69;49.63
70214;DHT22;60138;55.808;37.078;2022-07-09T14:30:29;25.74;48.99
70214;DHT22;60138;55.808;37.078;2022-07-09T14:32:55;25.79;48.24
70214;DHT22;60138;55.808;37.078;2022-07-09T14:35:21;25.86;48.88
70214;DHT22;60138;55.808;37.078;2022-07-09T14:37:46;25.95;47.96
70214;DHT22;60138;55.808;37.078;2022-07-09T14:40:12;26.07;47.85
70214;DHT22;60138;55.808;37.078;2022-07-09T14:42:38;26.28;47.22
70214;DHT22;60138;55.808;37.078;2022-07-09T14:45:04;26.41;47.30
70214;DHT22;60138;55.808;37.078;2022-07-09T14:47:30;26.41;46.93
70214;DHT22;60138;55.808;37.078;2022-07-09T14:49:55;26.39;46.81
70214;DHT22;60138;55.808;37.078;2022-07-09T14:52:21;26.35;47.11
70214;DHT22;60138;55.808;37.078;2022-07-09T14:54:47;26.27;47.52
70214;DHT22;60138;55.808;37.078;2022-07-09T14:57:13;26.21;47.25
70214;DHT22;60138;55.808;37.078;2022-07-09T14:59:39;26.09;47.95
70214;DHT22;60138;55.808;37.078;2022-07-09T15:02:05;26.02;47.94
70214;DHT22;60138;55.808;37.078;2022-07-09T15:04:30;25.94;48.50
70214;DHT22;60138;55.808;37.078;2022-07-09T15:06:56;25.90;47.87
70214;DHT22;60138;55.808;37.078;2022-07-09T15:09:22;25.86;47.83
70214;DHT22;60138;55.808;37.078;2022-07-09T15:11:48;25.78;47.14
70214;DHT22;60138;55.808;37.078;2022-07-09T15:14:13;25.67;47.63
70214;DHT22;60138;55.808;37.078;2022-07-09T15:16:39;25.59;47.58
70214;DHT22;60138;55.808;37.078;2022-07-09T15:19:05;25.54;47.63
70214;DHT22;60138;55.808;37.078;2022-07-09T15:21:31;25.50;48.12
70214;DHT22;60138;55.808;37.078;2022-07-09T15:23:57;25.51;46.99
70214;DHT22;60138;55.808;37.078;2022-07-09T15:26:22;25.42;47.99